Langley Air Force Base
KLFI : now visible

Airfield :











YOU CAN JOIN US ON...

 
LOGIN :

Register | Disclaimer

   EN    FR    IT 

 









Legend :    VFR   Marginal VFR   IFR   Intensive IFR   Very Intensive IFR
Visi :
Ceiling :
>= 8 km
>= 3000ft
5 to 8 km
1000 to 3000 ft
1500m to 5 km
500 to 1000 ft
800 to 1500m
200 to 500 ft
< 800m
< 200 ft
Symbols :   Thunderstorms  Fog  Heavy snow  Heavy precipitations  Wind > 20 kt






- Airport Elevation : 11 ft


KLFI - Langley Air Force Base

CURRENT METAR :
  • 300055Z 36010KT 10SM SCT065 BKN080 20/16 A2995 RMK AO2A SLP148 T02020158 $

EXPIRED METARs :
  • 292355Z 01017G22KT 10SM BKN075 BKN090 23/17 A2993 RMK AO2A SLP142 T02300165 10279 20221 53013 $
  • 292255Z 16003KT 8SM BKN085 25/16 A2988 RMK AO2A SLP125 T02460160 $
  • 292155Z 13008KT 8SM SCT085 26/15 A2988 RMK AO2A SLP125 T02590153 $
  • 292055Z 16009KT 8SM SCT050 BKN100 25/13 A2989 RMK AO2A SLP128 T02540132 57023 $

TAF TAF KLFI
Valid from the 30 at 01:00 until the 31 at 07:00 UTC


300100Z 3001/3107 06015G25KT 9999 SCT065 BKN080 QNH2994INS
BECMG 3002/3003 01012KT 9999 SCT055 BKN080 QNH2996INS
BECMG 3009/3010 32015G20KT 9999 SCT030 QNH2999INS
BECMG 3023/3024 34009KT 9999 FEW065 QNH3003INS TX24/3020Z TN16/3010Z
KZDC FIR / North America



MET'MAP, your aeronautical weather chart ! - Copyright ORBIFLY December 2007 - Disclaimer

ORBIFLY MET'MAP TEAM :

Programming & Development : Alexandra Zaïnal
Original concept : Baudouin d'Aumeries
Technical & hardware support : Manuel Goepfert
Assistance : Marc-Olivier Méhu




SOURCES & CREDITS :

   NOAA       Earth
Advisory